Terminal Aerodrome Forecast
Issued by NWS

Home | Current Version | Previous Version | Text Only | Print | Product List | Glossary On
Versions: 1 2 3 4 5 6 7 8 9 10 11 12 13
948
FTUS43 KBIS 272323
TAFMOT
TAF
KMOT 272323Z 2800/2824 19010KT P6SM SCT080 BKN250
     FM280100 22009KT P6SM SCT050 BKN200
     FM280200 27008KT P6SM VCTS SCT060CB BKN130
     FM280600 30010KT P6SM BKN110
     FM280800 31011KT P6SM SCT130=

USA.gov is the U.S. government's official web portal to all federal, state and local government web resources and services.